»·PEaware :: UAL485 KBFL-KLAX

UAL485 :: KBFL-KLAX

FLIGHT INFORMATION

Flight Status: Arrived
Operator:
United Airlines
More flights by this operator :: More flights under this callsign
Pilot: Anonymous 39875 (39875)
Aircraft: EMBRAER EMB-170/175
(E170)
More flights by this aircraft type
Origin: KBFL Meadows
United States
Destination: KLAX Los Angeles Intl
United States
More flights between these airports :: More routes between these airports
Route: MEADO5 FIM V107 SMO
File this flight plan on PilotEdge
Remarks: RMK / SIMBRIEF
Altitude:
(Current/Filed)
19,000ft
Speed:
(Current/Filed)
391kts
Departed: 09-Sep-22 08:15 PM
Arrived: 09-Sep-22 08:46 PM
Distance/Time
Traveled:
95nm/0:31
Distance/Time
To Go:
Arrived

Flight Plot

Page will automatically refresh every two minutes.

Flight plan parsing failed; only flown route is shown


Map Options




Map Legend


Flown Route
Filed Route
Departure Airport
Arrival Airport
Navaid (VOR, NDB)
Fix

Horizontal Profiles

Position Reports

Time Latitude Longitude Heading Altitude Ground
Speed
09-Sep-22 19:49 35.436905 -119.054872 44 517ft 0kts
09-Sep-22 19:51 35.436905 -119.054872 44 517ft 0kts
09-Sep-22 19:52 35.436905 -119.054872 44 517ft 0kts
09-Sep-22 19:53 35.436905 -119.054872 44 517ft 0kts
09-Sep-22 19:53 35.436905 -119.054872 44 517ft 0kts
09-Sep-22 19:54 35.436905 -119.054872 44 517ft 0kts
09-Sep-22 19:55 35.436905 -119.054872 44 517ft 0kts
09-Sep-22 19:56 35.436905 -119.054872 44 517ft 0kts
09-Sep-22 19:58 35.436905 -119.054872 44 517ft 0kts
09-Sep-22 19:58 35.436905 -119.054872 44 517ft 0kts
09-Sep-22 19:59 35.436905 -119.054872 44 517ft 0kts
09-Sep-22 20:00 35.436905 -119.054872 44 517ft 0kts
09-Sep-22 20:01 35.436905 -119.054872 44 517ft 0kts
09-Sep-22 20:02 35.436905 -119.054872 44 517ft 0kts
09-Sep-22 20:03 35.436905 -119.054872 44 517ft 0kts
09-Sep-22 20:04 35.436905 -119.054872 44 517ft 0kts
09-Sep-22 20:05 35.436856 -119.054929 42 517ft 2kts
09-Sep-22 20:06 35.436382 -119.054978 312 517ft 0kts
09-Sep-22 20:07 35.436382 -119.054978 312 517ft 0kts
09-Sep-22 20:08 35.437383 -119.056279 314 517ft 4kts
09-Sep-22 20:09 35.438604 -119.059673 315 517ft 15kts
09-Sep-22 20:10 35.441429 -119.063102 315 517ft 12kts
09-Sep-22 20:11 35.444044 -119.066262 316 517ft 17kts
09-Sep-22 20:12 35.446995 -119.070186 251 517ft 3kts
09-Sep-22 20:13 35.445931 -119.070775 134 517ft 9kts
09-Sep-22 20:14 35.421624 -119.040258 134 1665ft 205kts
09-Sep-22 20:15 35.377995 -118.980078 133 4690ft 255kts
09-Sep-22 20:16 35.308704 -118.960419 176 7709ft 273kts
09-Sep-22 20:17 35.232141 -118.955931 172 10713ft 285kts
09-Sep-22 20:18 35.143909 -118.948274 171 12624ft 325kts
09-Sep-22 20:19 35.050940 -118.940318 171 15637ft 342kts
09-Sep-22 20:20 34.954154 -118.932028 171 18644ft 355kts
09-Sep-22 20:21 34.852241 -118.923291 172 18933ft 367kts
09-Sep-22 20:22 34.750436 -118.914651 172 18952ft 366kts
09-Sep-22 20:23 34.648929 -118.906016 172 18931ft 365kts
09-Sep-22 20:24 34.547593 -118.897417 172 18886ft 364kts
09-Sep-22 20:25 34.446184 -118.888828 171 17709ft 364kts
09-Sep-22 20:26 34.347192 -118.876817 163 16073ft 349kts
09-Sep-22 20:27 34.255537 -118.843938 158 14420ft 341kts
09-Sep-22 20:28 34.166504 -118.811330 157 12729ft 320kts
09-Sep-22 20:29 34.083253 -118.780735 155 11075ft 300kts
09-Sep-22 20:30 34.034178 -118.712769 94 9403ft 270kts
09-Sep-22 20:31 34.026654 -118.624503 95 7790ft 268kts
09-Sep-22 20:32 34.017640 -118.536526 95 6778ft 261kts
09-Sep-22 20:33 34.007944 -118.449589 88 6764ft 261kts
09-Sep-22 20:34 34.014737 -118.362593 81 6510ft 261kts
09-Sep-22 20:35 34.023669 -118.279319 82 4743ft 243kts
09-Sep-22 20:36 34.034053 -118.199340 82 2967ft 241kts
09-Sep-22 20:37 34.043081 -118.123093 102 2712ft 221kts
09-Sep-22 20:38 33.996382 -118.099192 210 2721ft 202kts
09-Sep-22 20:39 33.975642 -118.154423 257 2744ft 161kts
09-Sep-22 20:40 33.971859 -118.204418 263 2999ft 146kts
09-Sep-22 20:41 33.967787 -118.252604 259 2681ft 145kts
09-Sep-22 20:42 33.962289 -118.300078 260 1778ft 140kts
09-Sep-22 20:43 33.957997 -118.345648 259 1044ft 132kts
09-Sep-22 20:44 33.953729 -118.386826 260 417ft 132kts
09-Sep-22 20:45 33.950601 -118.416455 258 137ft 24kts
09-Sep-22 20:46 33.947404 -118.422446 230 136ft 33kts
09-Sep-22 20:47 33.946128 -118.423813 257 136ft 5kts
09-Sep-22 20:48 33.947035 -118.420347 83 136ft 15kts
09-Sep-22 20:49 33.945681 -118.418074 171 136ft 8kts
09-Sep-22 20:50 33.941755 -118.417497 173 136ft 16kts
09-Sep-22 20:51 33.937916 -118.416441 93 136ft 12kts
09-Sep-22 20:52 33.938398 -118.411660 83 136ft 18kts
09-Sep-22 20:53 33.939136 -118.404417 83 136ft 20kts
09-Sep-22 20:54 33.939566 -118.400203 82 136ft 11kts
09-Sep-22 20:55 33.940066 -118.398256 345 136ft 5kts
09-Sep-22 20:56 33.941759 -118.398360 26 136ft 11kts
09-Sep-22 20:57 33.941938 -118.397850 84 136ft 0kts

Navigation Log

Ident Type
Flight plan parsing failed, navigation log unavailable